createdAt,value
2023-06-14T00:02:15.681Z,73.25
2023-06-14T00:05:19.133Z,73.77
2023-06-14T00:08:23.916Z,73.82
2023-06-14T00:11:28.146Z,73.76
2023-06-14T00:14:31.306Z,74.23
2023-06-14T00:17:35.473Z,73.42
2023-06-14T00:20:38.774Z,74.44
2023-06-14T00:23:42.069Z,73.90
2023-06-14T00:26:44.972Z,74.58
2023-06-14T00:29:48.076Z,74.41
2023-06-14T00:32:51.399Z,74.53
2023-06-14T00:35:55.224Z,75.39
2023-06-14T00:38:58.486Z,74.82
2023-06-14T00:42:01.674Z,75.66
2023-06-14T00:45:05.206Z,74.87
2023-06-14T00:48:10.525Z,74.03
2023-06-14T00:51:13.684Z,74.46
2023-06-14T00:54:17.013Z,73.66
2023-06-14T00:57:22.417Z,73.46
2023-06-14T01:00:25.867Z,72.88
2023-06-14T01:03:33.404Z,74.15
2023-06-14T01:06:52.777Z,74.58
2023-06-14T01:10:11.335Z,73.83
2023-06-14T01:13:26.613Z,73.47
2023-06-14T01:16:32.893Z,74.44
2023-06-14T01:19:36.322Z,73.83
2023-06-14T01:22:44.447Z,74.30
2023-06-14T01:25:48.945Z,75.67
2023-06-14T01:28:59.727Z,76.71
2023-06-14T01:32:03.256Z,76.23
2023-06-14T01:35:08.268Z,75.88
2023-06-14T01:38:11.999Z,76.42
2023-06-14T01:41:16.380Z,76.09
2023-06-14T01:44:21.208Z,75.34
2023-06-14T01:47:24.494Z,75.33
2023-06-14T01:50:33.906Z,75.16
2023-06-14T01:53:37.376Z,75.60
2023-06-14T01:56:40.309Z,76.27
2023-06-14T01:59:43.301Z,76.09
2023-06-14T02:02:47.096Z,78.83
2023-06-14T02:05:50.382Z,78.09
2023-06-14T02:08:54.236Z,77.87
2023-06-14T02:11:57.748Z,78.12
2023-06-14T02:15:00.821Z,79.31
2023-06-14T02:18:04.917Z,80.60
2023-06-14T02:21:10.021Z,79.90
2023-06-14T02:24:13.221Z,79.52
2023-06-14T02:27:16.264Z,80.22
2023-06-14T02:30:22.439Z,80.13
2023-06-14T02:33:26.600Z,80.26
2023-06-14T02:36:32.780Z,79.96
2023-06-14T02:39:37.969Z,79.54
2023-06-14T02:42:41.399Z,80.16
2023-06-14T02:45:44.589Z,80.29
2023-06-14T02:48:47.848Z,79.96
2023-06-14T02:51:51.028Z,80.92
2023-06-14T02:54:54.844Z,80.45
2023-06-14T02:57:58.352Z,80.92
2023-06-14T03:01:05.147Z,81.51
2023-06-14T03:04:12.131Z,81.13
2023-06-14T03:07:21.518Z,81.60
2023-06-14T03:10:30.458Z,82.01
2023-06-14T03:13:40.049Z,81.40
2023-06-14T03:16:44.183Z,81.61
2023-06-14T03:19:49.904Z,82.23
2023-06-14T03:22:55.410Z,82.41
2023-06-14T03:25:59.142Z,82.38
2023-06-14T03:29:03.123Z,80.61
2023-06-14T03:32:07.437Z,81.58
2023-06-14T03:35:18.555Z,81.70
2023-06-14T03:38:26.944Z,80.66
2023-06-14T03:41:30.048Z,81.48
2023-06-14T03:44:33.659Z,81.55
2023-06-14T03:47:38.213Z,82.11
2023-06-14T03:50:44.111Z,81.78
2023-06-14T03:54:08.988Z,80.88
2023-06-14T03:57:11.711Z,79.10
2023-06-14T04:00:16.697Z,77.13
2023-06-14T04:03:21.265Z,74.24
2023-06-14T04:06:26.232Z,73.81
2023-06-14T04:09:29.632Z,73.06
2023-06-14T04:12:33.812Z,71.73
2023-06-14T04:15:38.347Z,72.83
2023-06-14T04:18:42.322Z,71.89
2023-06-14T04:21:46.111Z,72.57
2023-06-14T04:25:00.735Z,72.84
2023-06-14T04:28:12.396Z,72.10
2023-06-14T04:31:17.702Z,72.41
2023-06-14T04:34:22.820Z,72.90
2023-06-14T04:37:32.523Z,72.18
2023-06-14T04:40:37.375Z,72.79
2023-06-14T04:43:41.837Z,71.85
2023-06-14T04:46:48.024Z,71.02
2023-06-14T04:49:58.993Z,71.62
2023-06-14T04:53:06.923Z,71.48
2023-06-14T04:56:11.183Z,72.44
2023-06-14T04:59:16.174Z,71.15
2023-06-14T05:02:19.570Z,71.25
2023-06-14T05:05:26.259Z,72.05
2023-06-14T05:08:29.842Z,71.33
2023-06-14T05:11:33.739Z,73.23
2023-06-14T05:14:37.942Z,73.23
2023-06-14T05:17:42.651Z,73.63
2023-06-14T05:20:45.701Z,74.11
2023-06-14T05:23:48.861Z,73.77
2023-06-14T05:26:52.302Z,75.25
2023-06-14T05:30:00.137Z,73.64
2023-06-14T05:33:04.278Z,73.08
2023-06-14T05:36:08.813Z,73.27
2023-06-14T05:39:12.393Z,73.49
2023-06-14T05:42:15.524Z,72.66
2023-06-14T05:45:19.133Z,71.93
2023-06-14T05:48:22.997Z,71.15
2023-06-14T05:51:26.796Z,73.75
2023-06-14T05:54:30.092Z,74.32
2023-06-14T05:57:33.676Z,73.74
2023-06-14T06:00:38.028Z,72.93
2023-06-14T06:03:41.751Z,72.26
2023-06-14T06:06:45.160Z,73.35
2023-06-14T06:09:49.128Z,72.87
2023-06-14T06:12:53.511Z,72.92
2023-06-14T06:15:58.066Z,72.10
2023-06-14T06:19:03.325Z,73.60
2023-06-14T06:22:07.784Z,73.62
2023-06-14T06:25:11.252Z,73.86
2023-06-14T06:28:14.958Z,75.06
2023-06-14T06:31:18.734Z,75.16
2023-06-14T06:34:21.995Z,74.62
2023-06-14T06:37:25.438Z,74.93
2023-06-14T06:40:29.200Z,76.64
2023-06-14T06:43:32.921Z,75.97
2023-06-14T06:46:42.723Z,75.67
2023-06-14T06:49:46.632Z,77.59
2023-06-14T06:52:50.723Z,77.61
2023-06-14T06:55:54.393Z,78.92
2023-06-14T06:58:58.293Z,78.73
2023-06-14T07:02:02.215Z,78.27
2023-06-14T07:05:06.167Z,78.57
2023-06-14T07:08:09.414Z,78.89
2023-06-14T07:11:13.054Z,78.38
2023-06-14T07:14:16.688Z,79.00
2023-06-14T07:17:20.464Z,79.02
2023-06-14T07:20:26.143Z,78.08
2023-06-14T07:23:29.624Z,77.29
2023-06-14T07:26:33.423Z,77.05
2023-06-14T07:29:36.609Z,76.65
2023-06-14T07:32:40.118Z,75.25
2023-06-14T07:35:44.594Z,76.35
2023-06-14T07:38:48.084Z,75.03
2023-06-14T07:41:51.798Z,74.24
2023-06-14T07:44:55.438Z,74.63
2023-06-14T07:47:59.177Z,75.33
2023-06-14T07:51:04.118Z,75.40
2023-06-14T07:54:08.842Z,73.83
2023-06-14T07:57:11.898Z,73.21
2023-06-14T08:00:16.816Z,71.52
2023-06-14T08:03:21.073Z,69.42
2023-06-14T08:06:24.578Z,68.52
2023-06-14T08:09:30.406Z,65.95
2023-06-14T08:12:35.102Z,64.68
2023-06-14T08:15:38.592Z,64.54
2023-06-14T08:18:42.460Z,62.58
2023-06-14T08:21:46.005Z,59.77
2023-06-14T08:24:49.761Z,65.08
2023-06-14T08:27:56.271Z,68.01
2023-06-14T08:31:00.422Z,63.91
2023-06-14T08:34:05.555Z,66.73
2023-06-14T08:37:11.041Z,67.00
2023-06-14T08:40:25.283Z,66.49
2023-06-14T08:43:28.728Z,64.71
2023-06-14T08:46:35.414Z,64.92
2023-06-14T08:49:40.846Z,65.94
2023-06-14T08:52:50.755Z,65.64
2023-06-14T08:55:54.725Z,67.18
2023-06-14T08:59:02.600Z,65.12
2023-06-14T09:02:13.181Z,60.18
2023-06-14T09:05:19.671Z,60.66
2023-06-14T09:08:23.606Z,60.37
2023-06-14T09:11:28.043Z,59.23
2023-06-14T09:14:32.554Z,58.96
2023-06-14T09:17:37.261Z,57.00
2023-06-14T09:20:42.334Z,59.08
2023-06-14T09:23:47.452Z,50.04
2023-06-14T09:26:52.796Z,51.87
2023-06-14T09:29:56.333Z,53.12
2023-06-14T09:33:02.906Z,56.35
2023-06-14T09:36:14.166Z,56.86
2023-06-14T09:39:19.488Z,56.38
2023-06-14T09:42:24.284Z,51.85
2023-06-14T09:45:30.856Z,48.15
2023-06-14T09:48:34.979Z,50.72
2023-06-14T09:51:45.190Z,52.32
2023-06-14T09:54:50.928Z,50.78
2023-06-14T09:57:55.733Z,52.45
2023-06-14T10:01:00.665Z,51.91
2023-06-14T10:04:11.290Z,53.22
2023-06-14T10:07:21.728Z,50.79
2023-06-14T10:10:25.109Z,38.39
2023-06-14T10:13:32.941Z,42.21
2023-06-14T10:16:48.648Z,42.91
2023-06-14T10:19:59.612Z,43.51
2023-06-14T10:23:11.835Z,45.59
2023-06-14T10:26:26.251Z,46.16
2023-06-14T10:29:33.700Z,42.26
2023-06-14T10:32:57.093Z,40.03
2023-06-14T10:36:10.061Z,38.42
2023-06-14T10:39:18.882Z,37.63
2023-06-14T10:42:24.156Z,36.37
2023-06-14T10:45:27.656Z,41.96
2023-06-14T10:48:31.552Z,39.33
2023-06-14T10:51:47.693Z,40.64
2023-06-14T10:55:16.539Z,37.46
2023-06-14T10:58:20.434Z,38.43
2023-06-14T11:01:34.042Z,40.71
2023-06-14T11:04:53.602Z,39.96
2023-06-14T11:08:05.994Z,41.35
2023-06-14T11:11:10.610Z,41.52
2023-06-14T11:14:14.074Z,40.91
2023-06-14T11:17:32.281Z,41.80
2023-06-14T11:20:36.884Z,43.72
2023-06-14T11:23:40.193Z,42.52
2023-06-14T11:26:43.504Z,42.00
2023-06-14T11:29:51.226Z,44.26
2023-06-14T11:32:58.631Z,44.36
2023-06-14T11:36:05.739Z,44.83
2023-06-14T11:39:10.008Z,41.66
2023-06-14T11:42:22.314Z,44.29
2023-06-14T11:45:26.385Z,44.36
2023-06-14T11:48:43.673Z,43.67
2023-06-14T11:51:47.532Z,44.67
2023-06-14T11:54:50.618Z,40.86
2023-06-14T11:57:56.405Z,44.36
2023-06-14T12:00:59.539Z,40.70
2023-06-14T12:04:05.744Z,43.83
2023-06-14T12:07:21.356Z,45.47
2023-06-14T12:10:24.667Z,44.58
2023-06-14T12:13:28.812Z,43.07
2023-06-14T12:16:36.932Z,44.66
2023-06-14T12:19:45.218Z,45.37
2023-06-14T12:22:57.712Z,45.61
2023-06-14T12:26:02.757Z,43.66
2023-06-14T12:29:08.269Z,44.22
2023-06-14T12:32:11.914Z,47.06
2023-06-14T12:35:16.475Z,47.40
2023-06-14T12:38:19.990Z,46.57
2023-06-14T12:41:25.898Z,46.62
2023-06-14T12:44:29.515Z,47.33
2023-06-14T12:47:32.551Z,49.53
2023-06-14T12:50:36.141Z,54.76
2023-06-14T12:53:39.560Z,58.35
2023-06-14T12:56:44.479Z,58.34
2023-06-14T12:59:47.956Z,59.87
2023-06-14T13:02:52.164Z,60.90
2023-06-14T13:05:55.594Z,63.02
2023-06-14T13:09:00.360Z,64.41
2023-06-14T13:12:04.244Z,65.88
2023-06-14T13:15:08.889Z,66.33
2023-06-14T13:18:13.931Z,67.58
2023-06-14T13:21:17.032Z,66.85
2023-06-14T13:24:20.349Z,68.57
2023-06-14T13:27:25.095Z,66.86
2023-06-14T13:30:28.300Z,65.69
2023-06-14T13:33:33.322Z,64.17
2023-06-14T13:36:36.765Z,67.41
2023-06-14T13:39:40.826Z,66.57
2023-06-14T13:42:44.349Z,66.02
2023-06-14T13:45:47.631Z,65.84
2023-06-14T13:48:50.797Z,64.63
2023-06-14T13:51:54.371Z,65.25
2023-06-14T13:54:58.068Z,66.02
2023-06-14T13:58:01.588Z,65.58
2023-06-14T14:01:05.082Z,65.63
2023-06-14T14:04:08.267Z,66.80
2023-06-14T14:07:11.471Z,67.51
2023-06-14T14:10:16.134Z,67.05
2023-06-14T14:13:19.489Z,66.28
2023-06-14T14:16:22.933Z,65.82
2023-06-14T14:19:26.302Z,66.35
2023-06-14T14:22:29.604Z,64.91
2023-06-14T14:25:32.837Z,65.05
2023-06-14T14:28:36.050Z,64.89
2023-06-14T14:31:40.110Z,65.02
2023-06-14T14:34:43.339Z,65.74
2023-06-14T14:37:46.907Z,64.56
2023-06-14T14:40:50.300Z,65.58
2023-06-14T14:43:53.649Z,66.44
2023-06-14T14:46:56.773Z,66.23
2023-06-14T14:49:59.817Z,65.92
2023-06-14T14:53:03.111Z,65.92
2023-06-14T14:56:07.265Z,65.50
2023-06-14T14:59:10.599Z,65.16
2023-06-14T15:02:13.968Z,65.40
2023-06-14T15:05:17.274Z,66.56
2023-06-14T15:08:21.346Z,65.92
2023-06-14T15:11:24.851Z,65.30
2023-06-14T15:14:28.184Z,66.26
2023-06-14T15:17:31.851Z,65.16
2023-06-14T15:20:35.360Z,64.91
2023-06-14T15:23:38.684Z,64.15
2023-06-14T15:26:41.971Z,61.72
2023-06-14T15:29:47.455Z,59.80
2023-06-14T15:32:52.469Z,57.97
2023-06-14T15:35:56.784Z,58.70
2023-06-14T15:39:00.183Z,58.81
2023-06-14T15:42:04.620Z,58.21
2023-06-14T15:45:08.691Z,58.48
2023-06-14T15:48:11.910Z,58.48
2023-06-14T15:51:15.322Z,58.53
2023-06-14T15:54:18.669Z,59.41
2023-06-14T15:57:21.710Z,59.20
2023-06-14T16:00:27.265Z,58.74
2023-06-14T16:03:30.857Z,60.22
2023-06-14T16:06:34.537Z,60.13
2023-06-14T16:09:37.978Z,59.66
2023-06-14T16:12:41.094Z,60.68
2023-06-14T16:15:44.643Z,58.98
2023-06-14T16:18:47.832Z,59.13
2023-06-14T16:21:51.829Z,55.38
2023-06-14T16:24:55.512Z,54.90
2023-06-14T16:27:58.790Z,57.65
2023-06-14T16:31:02.354Z,56.52
2023-06-14T16:34:09.399Z,53.83
2023-06-14T16:37:12.485Z,55.07
2023-06-14T16:40:16.265Z,55.25
2023-06-14T16:43:19.816Z,55.61
2023-06-14T16:46:31.337Z,55.29
2023-06-14T16:49:35.050Z,55.18
2023-06-14T16:52:38.267Z,54.58
2023-06-14T16:55:42.669Z,53.89
2023-06-14T16:58:46.365Z,55.11
2023-06-14T17:01:52.322Z,55.94
2023-06-14T17:04:55.736Z,55.51
2023-06-14T17:08:00.187Z,55.28
2023-06-14T17:11:04.039Z,56.26
2023-06-14T17:14:09.264Z,56.78
2023-06-14T17:17:12.824Z,57.94
2023-06-14T17:20:16.686Z,59.65
2023-06-14T17:23:20.215Z,60.24
2023-06-14T17:26:23.196Z,60.39
2023-06-14T17:29:27.901Z,61.27
2023-06-14T17:32:31.179Z,60.25
2023-06-14T17:35:34.488Z,60.42
2023-06-14T17:38:38.492Z,60.75
2023-06-14T17:41:41.664Z,61.48
2023-06-14T17:44:45.676Z,61.88
2023-06-14T17:47:50.694Z,61.52
2023-06-14T17:50:55.264Z,62.24
2023-06-14T17:53:58.355Z,61.23
2023-06-14T17:57:01.689Z,61.53
2023-06-14T18:00:07.045Z,61.50
2023-06-14T18:03:15.807Z,61.38
2023-06-14T18:06:19.518Z,61.79
2023-06-14T18:09:22.857Z,62.65
2023-06-14T18:12:27.042Z,63.59
2023-06-14T18:15:30.758Z,63.75
2023-06-14T18:18:34.239Z,63.93
2023-06-14T18:21:38.058Z,62.76
2023-06-14T18:24:41.224Z,62.44
2023-06-14T18:27:45.448Z,63.02
2023-06-14T18:30:48.750Z,63.74
2023-06-14T18:33:52.488Z,64.62
2023-06-14T18:36:58.288Z,64.92
2023-06-14T18:40:03.187Z,65.50
2023-06-14T18:43:06.549Z,65.24
2023-06-14T18:46:13.191Z,64.73
2023-06-14T18:49:16.572Z,64.90
2023-06-14T18:52:19.677Z,65.26
2023-06-14T18:55:26.107Z,66.11
2023-06-14T18:58:29.680Z,65.39
2023-06-14T19:01:33.377Z,65.54
2023-06-14T19:04:37.478Z,65.51
2023-06-14T19:07:41.002Z,65.73
2023-06-14T19:10:44.620Z,67.36
2023-06-14T19:13:48.291Z,67.65
2023-06-14T19:16:52.713Z,68.90
2023-06-14T19:19:56.449Z,69.85
2023-06-14T19:23:01.271Z,69.00
2023-06-14T19:26:05.375Z,68.20
2023-06-14T19:29:08.623Z,67.12
2023-06-14T19:32:12.807Z,68.30
2023-06-14T19:35:16.800Z,69.20
2023-06-14T19:38:20.550Z,69.02
2023-06-14T19:41:29.101Z,70.53
2023-06-14T19:44:32.607Z,70.60
2023-06-14T19:47:35.862Z,72.70
2023-06-14T19:50:39.134Z,71.56
2023-06-14T19:53:42.380Z,71.23
2023-06-14T19:56:46.524Z,71.95
2023-06-14T19:59:49.819Z,72.26
2023-06-14T20:02:53.694Z,71.66
2023-06-14T20:05:57.295Z,72.06
2023-06-14T20:09:00.511Z,72.14
2023-06-14T20:12:04.055Z,72.67
2023-06-14T20:15:08.151Z,72.88
2023-06-14T20:18:11.709Z,72.99
2023-06-14T20:21:14.829Z,72.96
2023-06-14T20:24:18.075Z,73.19
2023-06-14T20:27:21.464Z,73.60
2023-06-14T20:30:24.885Z,73.79
2023-06-14T20:33:28.473Z,74.38
2023-06-14T20:36:31.743Z,75.73
2023-06-14T20:39:34.966Z,75.63
2023-06-14T20:42:38.343Z,74.94
2023-06-14T20:45:41.715Z,74.10
2023-06-14T20:48:45.062Z,73.94
2023-06-14T20:51:48.243Z,73.25
2023-06-14T20:54:55.813Z,73.27
2023-06-14T20:58:00.386Z,73.39
2023-06-14T21:01:04.603Z,72.46
2023-06-14T21:04:08.053Z,72.83
2023-06-14T21:07:11.397Z,72.71
2023-06-14T21:10:15.233Z,73.47
2023-06-14T21:13:18.401Z,71.54
2023-06-14T21:16:21.585Z,70.67
2023-06-14T21:19:24.821Z,70.23
2023-06-14T21:22:27.984Z,70.82
2023-06-14T21:25:31.340Z,70.67
2023-06-14T21:28:34.364Z,70.74
2023-06-14T21:31:37.551Z,70.45
2023-06-14T21:34:41.980Z,70.83
2023-06-14T21:37:45.027Z,70.53
2023-06-14T21:40:48.122Z,70.81
2023-06-14T21:43:51.144Z,70.65
2023-06-14T21:46:54.338Z,70.20
2023-06-14T21:49:57.497Z,69.91
2023-06-14T21:53:00.541Z,69.74
2023-06-14T21:56:04.091Z,69.16
2023-06-14T21:59:07.294Z,70.20
2023-06-14T22:02:10.983Z,70.04
2023-06-14T22:05:13.957Z,70.15
2023-06-14T22:08:17.999Z,69.63
2023-06-14T22:11:22.333Z,68.99
2023-06-14T22:14:25.288Z,69.37
2023-06-14T22:17:30.691Z,68.77
2023-06-14T22:20:34.292Z,68.72
2023-06-14T22:23:37.642Z,68.45
2023-06-14T22:26:48.662Z,68.92
2023-06-14T22:29:58.255Z,69.23
2023-06-14T22:33:04.539Z,69.41
2023-06-14T22:36:09.623Z,70.33
2023-06-14T22:39:13.299Z,72.21
2023-06-14T22:42:19.453Z,71.23
2023-06-14T22:45:28.664Z,71.01
2023-06-14T22:48:45.888Z,70.31
2023-06-14T22:51:56.731Z,69.43
2023-06-14T22:55:00.195Z,67.44
2023-06-14T22:58:04.562Z,67.80
2023-06-14T23:01:16.198Z,67.29
2023-06-14T23:04:22.120Z,67.78
2023-06-14T23:07:28.401Z,66.02
2023-06-14T23:10:31.734Z,65.17
2023-06-14T23:13:35.019Z,65.56
2023-06-14T23:16:38.397Z,65.79
2023-06-14T23:19:41.883Z,65.60
2023-06-14T23:22:44.888Z,65.61
2023-06-14T23:25:49.621Z,65.48
2023-06-14T23:28:55.479Z,64.55
2023-06-14T23:32:00.980Z,65.18
2023-06-14T23:35:09.338Z,64.96
2023-06-14T23:38:13.612Z,64.99
2023-06-14T23:41:17.310Z,65.33
2023-06-14T23:44:25.805Z,65.14
2023-06-14T23:47:32.560Z,68.95
2023-06-14T23:50:35.920Z,68.29
2023-06-14T23:53:39.353Z,68.95
2023-06-14T23:56:42.626Z,69.08
2023-06-14T23:59:46.593Z,68.77
